createdAt,value
2019-01-16T00:00:48.254Z,18.4
2019-01-16T00:01:38.079Z,18.4
2019-01-16T00:02:28.924Z,18.4
2019-01-16T00:03:18.809Z,18.4
2019-01-16T00:04:08.763Z,18.4
2019-01-16T00:04:58.535Z,18.4
2019-01-16T00:05:48.326Z,18.4
2019-01-16T00:06:39.216Z,18.4
2019-01-16T00:07:28.996Z,18.4
2019-01-16T00:08:19.026Z,18.4
2019-01-16T00:09:09.093Z,18.4
2019-01-16T00:09:59.158Z,18.4
2019-01-16T00:10:48.938Z,18.4
2019-01-16T00:11:39.546Z,18.4
2019-01-16T00:12:29.585Z,18.4
2019-01-16T00:13:19.375Z,18.4
2019-01-16T00:14:09.148Z,18.4
2019-01-16T00:14:58.978Z,18.4
2019-01-16T00:15:49.066Z,18.4
2019-01-16T00:16:39.395Z,18.4
2019-01-16T00:17:29.232Z,18.4
2019-01-16T00:18:20.204Z,18.4
2019-01-16T00:19:09.768Z,18.4
2019-01-16T00:19:59.840Z,18.4
2019-01-16T00:20:50.160Z,18.4
2019-01-16T00:21:39.938Z,18.4
2019-01-16T00:22:30.277Z,18.4
2019-01-16T00:23:19.773Z,18.4
2019-01-16T00:24:10.385Z,18.4
2019-01-16T00:24:59.329Z,18.4
2019-01-16T00:25:50.507Z,18.4
2019-01-16T00:26:40.277Z,18.4
2019-01-16T00:27:30.332Z,18.4
2019-01-16T00:28:20.377Z,18.4
2019-01-16T00:29:10.710Z,18.4
2019-01-16T00:30:00.256Z,18.4
2019-01-16T00:30:50.287Z,18.4
2019-01-16T00:31:40.622Z,18.4
2019-01-16T00:32:30.949Z,18.3
2019-01-16T00:33:21.010Z,18.4
2019-01-16T00:34:10.787Z,18.3
2019-01-16T00:35:01.206Z,18.3
2019-01-16T00:35:50.129Z,18.3
2019-01-16T00:36:40.466Z,18.4
2019-01-16T00:37:30.799Z,18.3
2019-01-16T00:38:20.862Z,18.3
2019-01-16T00:39:10.926Z,18.3
2019-01-16T00:40:00.969Z,18.3
2019-01-16T00:40:51.244Z,18.3
2019-01-16T00:41:41.027Z,18.3
2019-01-16T00:42:31.343Z,18.3
2019-01-16T00:43:20.849Z,18.3
2019-01-16T00:44:11.731Z,18.3
2019-01-16T00:45:00.963Z,18.3
2019-01-16T00:45:51.566Z,18.3
2019-01-16T00:46:41.890Z,18.3
2019-01-16T00:47:31.966Z,18.3
2019-01-16T00:48:27.447Z,18.3
2019-01-16T00:49:11.831Z,18.3
2019-01-16T00:50:01.623Z,18.3
2019-01-16T00:50:51.628Z,18.3
2019-01-16T00:51:42.256Z,18.3
2019-01-16T00:52:31.739Z,18.3
2019-01-16T00:53:22.128Z,18.3
2019-01-16T00:54:12.118Z,18.3
2019-01-16T00:55:02.202Z,18.3
2019-01-16T00:55:52.524Z,18.3
2019-01-16T00:56:42.293Z,18.3
2019-01-16T00:57:32.625Z,18.3
2019-01-16T00:58:22.423Z,18.3
2019-01-16T00:59:13.493Z,18.3
2019-01-16T01:00:02.590Z,18.3
2019-01-16T01:00:52.319Z,18.3
2019-01-16T01:01:42.380Z,18.3
2019-01-16T01:02:32.692Z,18.3
2019-01-16T01:03:23.040Z,18.3
2019-01-16T01:04:12.540Z,18.3
2019-01-16T01:05:02.895Z,18.3
2019-01-16T01:05:53.200Z,18.3
2019-01-16T01:06:42.995Z,18.3
2019-01-16T01:07:32.755Z,18.3
2019-01-16T01:08:23.122Z,18.3
2019-01-16T01:09:13.433Z,18.3
2019-01-16T01:10:03.587Z,18.3
2019-01-16T01:10:52.989Z,18.3
2019-01-16T01:11:43.058Z,18.3
2019-01-16T01:12:33.369Z,18.3
2019-01-16T01:13:23.442Z,18.3
2019-01-16T01:14:13.772Z,18.3
2019-01-16T01:15:03.853Z,18.3
2019-01-16T01:15:53.872Z,18.3
2019-01-16T01:16:43.674Z,18.3
2019-01-16T01:17:33.994Z,18.3
2019-01-16T01:18:24.052Z,18.3
2019-01-16T01:19:13.832Z,18.3
2019-01-16T01:20:03.899Z,18.3
2019-01-16T01:20:53.946Z,18.3
2019-01-16T01:21:44.005Z,18.3
2019-01-16T01:22:34.402Z,18.3
2019-01-16T01:23:23.829Z,18.3
2019-01-16T01:24:14.449Z,18.3
2019-01-16T01:25:04.519Z,18.3
2019-01-16T01:25:54.303Z,18.3
2019-01-16T01:26:44.615Z,18.3
2019-01-16T01:27:34.404Z,18.3
2019-01-16T01:28:24.449Z,18.3
2019-01-16T01:29:14.774Z,18.3
2019-01-16T01:30:04.306Z,18.3
2019-01-16T01:30:54.731Z,18.3
2019-01-16T01:31:44.408Z,18.2
2019-01-16T01:32:34.458Z,18.2
2019-01-16T01:33:25.070Z,18.3
2019-01-16T01:34:14.873Z,18.2
2019-01-16T01:35:05.196Z,18.2
2019-01-16T01:35:55.228Z,18.2
2019-01-16T01:36:45.010Z,18.2
2019-01-16T01:37:35.068Z,18.2
2019-01-16T01:38:25.417Z,18.2
2019-01-16T01:39:15.172Z,18.2
2019-01-16T01:40:05.522Z,18.2
2019-01-16T01:40:55.286Z,18.2
2019-01-16T01:41:45.080Z,18.2
2019-01-16T01:42:35.413Z,18.2
2019-01-16T01:43:25.205Z,18.2
2019-01-16T01:44:15.247Z,18.2
2019-01-16T01:45:05.304Z,18.2
2019-01-16T01:45:55.920Z,18.2
2019-01-16T01:46:45.680Z,18.2
2019-01-16T01:47:35.485Z,18.2
2019-01-16T01:48:25.530Z,18.2
2019-01-16T01:49:15.925Z,18.2
2019-01-16T01:50:05.922Z,18.2
2019-01-16T01:50:55.478Z,18.2
2019-01-16T01:51:45.527Z,18.2
2019-01-16T01:52:36.362Z,18.2
2019-01-16T01:53:26.139Z,18.2
2019-01-16T01:54:16.474Z,18.2
2019-01-16T01:55:05.974Z,18.2
2019-01-16T01:55:56.587Z,18.2
2019-01-16T01:56:46.092Z,18.2
2019-01-16T01:57:35.875Z,18.2
2019-01-16T01:58:26.209Z,18.2
2019-01-16T01:59:15.982Z,18.2
2019-01-16T02:00:06.591Z,18.1
2019-01-16T02:00:56.934Z,18.2
2019-01-16T02:01:46.427Z,18.2
2019-01-16T02:02:36.811Z,18.2
2019-01-16T02:03:26.817Z,18.2
2019-01-16T02:04:16.594Z,18.2
2019-01-16T02:05:06.660Z,18.2
2019-01-16T02:05:56.704Z,18.2
2019-01-16T02:06:47.428Z,18.2
2019-01-16T02:07:37.373Z,18.2
2019-01-16T02:08:27.429Z,18.2
2019-01-16T02:09:17.204Z,18.1
2019-01-16T02:10:07.261Z,18.1
2019-01-16T02:10:57.658Z,18.2
2019-01-16T02:11:47.100Z,18.1
2019-01-16T02:12:37.436Z,18.2
2019-01-16T02:13:27.486Z,18.2
2019-01-16T02:14:16.988Z,18.1
2019-01-16T02:15:07.603Z,18.2
2019-01-16T02:15:57.666Z,18.1
2019-01-16T02:16:47.172Z,18.1
2019-01-16T02:17:37.000Z,18.1
2019-01-16T02:18:27.078Z,18.2
2019-01-16T02:19:17.714Z,18.1
2019-01-16T02:20:07.735Z,18.1
2019-01-16T02:20:57.790Z,18.1
2019-01-16T02:21:47.570Z,18.1
2019-01-16T02:22:37.355Z,18.1
2019-01-16T02:23:27.712Z,18.2
2019-01-16T02:24:17.748Z,18.1
2019-01-16T02:25:07.542Z,18.1
2019-01-16T02:25:57.860Z,18.1
2019-01-16T02:26:48.195Z,18.1
2019-01-16T02:27:38.730Z,18.1
2019-01-16T02:28:27.963Z,18.1
2019-01-16T02:29:18.582Z,18.1
2019-01-16T02:30:08.970Z,18.1
2019-01-16T02:30:59.005Z,18.1
2019-01-16T02:31:48.746Z,18.1
2019-01-16T02:32:38.844Z,18.1
2019-01-16T02:33:28.599Z,18.1
2019-01-16T02:34:18.917Z,18.1
2019-01-16T02:35:08.688Z,18.1
2019-01-16T02:35:59.029Z,18.1
2019-01-16T02:36:49.417Z,18.1
2019-01-16T02:37:38.906Z,18.1
2019-01-16T02:38:29.221Z,18.1
2019-01-16T02:39:19.277Z,18.1
2019-01-16T02:40:09.309Z,18.1
2019-01-16T02:40:59.385Z,18.1
2019-01-16T02:41:49.423Z,18.1
2019-01-16T02:42:39.211Z,18.1
2019-01-16T02:43:29.808Z,18.1
2019-01-16T02:44:19.379Z,18.1
2019-01-16T02:45:09.637Z,18.1
2019-01-16T02:45:59.997Z,18.1
2019-01-16T02:46:49.278Z,18.1
2019-01-16T02:47:39.458Z,18.1
2019-01-16T02:48:29.134Z,18.1
2019-01-16T02:49:19.656Z,18.1
2019-01-16T02:50:10.271Z,18.1
2019-01-16T02:51:00.053Z,18.1
2019-01-16T02:51:50.377Z,18.1
2019-01-16T02:52:40.220Z,18.2
2019-01-16T02:53:29.937Z,18.1
2019-01-16T02:54:20.558Z,18.1
2019-01-16T02:55:10.104Z,18.1
2019-01-16T02:56:00.329Z,18.2
2019-01-16T02:56:50.494Z,18.1
2019-01-16T02:57:40.484Z,18.2
2019-01-16T02:58:30.336Z,18.2
2019-01-16T02:59:20.891Z,18.2
2019-01-16T03:00:10.396Z,18.2
2019-01-16T03:01:00.989Z,18.2
2019-01-16T03:01:51.096Z,18.2
2019-01-16T03:02:40.840Z,18.2
2019-01-16T03:03:30.606Z,18.2
2019-01-16T03:04:20.670Z,18.2
2019-01-16T03:05:11.070Z,18.2
2019-01-16T03:08:44.549Z,18.2
2019-01-16T03:09:34.258Z,18.2
2019-01-16T03:10:24.867Z,18.3
2019-01-16T03:11:14.856Z,18.2
2019-01-16T03:12:04.977Z,18.2
2019-01-16T03:12:55.002Z,18.2
2019-01-16T03:13:45.039Z,18.3
2019-01-16T03:14:35.103Z,18.3
2019-01-16T03:15:24.874Z,18.2
2019-01-16T03:16:14.672Z,18.3
2019-01-16T03:17:05.010Z,18.3
2019-01-16T03:17:54.792Z,18.3
2019-01-16T03:18:45.369Z,18.3
2019-01-16T03:19:35.537Z,18.3
2019-01-16T03:20:24.960Z,18.3
2019-01-16T03:21:15.541Z,18.3
2019-01-16T03:22:05.662Z,18.3
2019-01-16T03:22:55.674Z,18.3
2019-01-16T03:23:44.882Z,18.3
2019-01-16T03:24:35.241Z,18.3
2019-01-16T03:25:25.273Z,18.3
2019-01-16T03:26:15.926Z,18.3
2019-01-16T03:27:05.659Z,18.3
2019-01-16T03:27:56.002Z,18.3
2019-01-16T03:28:46.051Z,18.3
2019-01-16T03:29:35.551Z,18.3
2019-01-16T03:30:25.875Z,18.3
2019-01-16T03:31:15.820Z,18.3
2019-01-16T03:32:06.479Z,18.3
2019-01-16T03:32:56.141Z,18.3
2019-01-16T03:33:45.824Z,18.3
2019-01-16T03:34:35.966Z,18.3
2019-01-16T03:35:26.505Z,18.3
2019-01-16T03:36:16.388Z,18.3
2019-01-16T03:37:06.338Z,18.3
2019-01-16T03:37:56.663Z,18.3
2019-01-16T03:38:46.733Z,18.3
2019-01-16T03:39:36.088Z,18.3
2019-01-16T03:40:26.828Z,18.3
2019-01-16T03:41:16.627Z,18.3
2019-01-16T03:42:07.000Z,18.3
2019-01-16T03:42:56.714Z,18.3
2019-01-16T03:43:46.786Z,18.3
2019-01-16T03:44:36.891Z,18.3
2019-01-16T03:45:27.161Z,18.3
2019-01-16T03:46:16.960Z,18.3
2019-01-16T03:47:06.728Z,18.3
2019-01-16T03:47:57.082Z,18.3
2019-01-16T03:48:47.378Z,18.3
2019-01-16T03:49:37.189Z,18.3
2019-01-16T03:50:27.510Z,18.3
2019-01-16T03:51:17.005Z,18.3
2019-01-16T03:52:07.684Z,18.3
2019-01-16T03:52:57.438Z,18.3
2019-01-16T03:53:47.162Z,18.3
2019-01-16T03:54:37.515Z,18.3
2019-01-16T03:55:27.570Z,18.3
2019-01-16T03:56:17.605Z,18.3
2019-01-16T03:57:07.416Z,18.3
2019-01-16T03:57:58.027Z,18.3
2019-01-16T03:58:48.069Z,18.3
2019-01-16T03:59:37.870Z,18.3
2019-01-16T04:00:28.169Z,18.3
2019-01-16T04:01:17.960Z,18.3
2019-01-16T04:02:08.306Z,18.3
2019-01-16T04:02:58.365Z,18.3
2019-01-16T04:03:48.115Z,18.3
2019-01-16T04:04:38.456Z,18.3
2019-01-16T04:05:28.514Z,18.3
2019-01-16T04:06:18.571Z,18.3
2019-01-16T04:07:08.071Z,18.3
2019-01-16T04:07:58.111Z,18.3
2019-01-16T04:08:48.491Z,18.3
2019-01-16T04:09:38.528Z,18.3
2019-01-16T04:10:28.266Z,18.3
2019-01-16T04:11:18.626Z,18.3
2019-01-16T04:12:08.745Z,18.3
2019-01-16T04:12:58.741Z,18.3
2019-01-16T04:13:48.795Z,18.3
2019-01-16T04:14:39.155Z,18.3
2019-01-16T04:15:29.181Z,18.3
2019-01-16T04:16:19.288Z,18.3
2019-01-16T04:17:09.094Z,18.3
2019-01-16T04:17:59.348Z,18.3
2019-01-16T04:18:49.431Z,18.3
2019-01-16T04:19:39.465Z,18.3
2019-01-16T04:20:29.543Z,18.3
2019-01-16T04:21:19.598Z,18.3
2019-01-16T04:22:09.686Z,18.3
2019-01-16T04:22:59.418Z,18.3
2019-01-16T04:23:49.773Z,18.3
2019-01-16T04:24:39.535Z,18.3
2019-01-16T04:25:29.620Z,18.3
2019-01-16T04:26:19.645Z,18.3
2019-01-16T04:27:09.959Z,18.3
2019-01-16T04:27:59.755Z,18.3
2019-01-16T04:28:49.535Z,18.3
2019-01-16T04:29:39.893Z,18.3
2019-01-16T04:30:29.915Z,18.3
2019-01-16T04:31:20.240Z,18.3
2019-01-16T04:32:10.315Z,18.3
2019-01-16T04:33:00.406Z,18.3
2019-01-16T04:33:50.426Z,18.3
2019-01-16T04:34:40.478Z,18.3
2019-01-16T04:35:30.300Z,18.3
2019-01-16T04:36:20.603Z,18.3
2019-01-16T04:37:10.632Z,18.3
2019-01-16T04:38:00.503Z,18.3
2019-01-16T04:38:50.764Z,18.3
2019-01-16T04:39:40.809Z,18.3
2019-01-16T04:40:30.887Z,18.3
2019-01-16T04:41:20.710Z,18.3
2019-01-16T04:42:11.122Z,18.3
2019-01-16T04:43:00.824Z,18.3
2019-01-16T04:43:50.534Z,18.3
2019-01-16T04:44:40.940Z,18.3
2019-01-16T04:45:30.664Z,18.3
2019-01-16T04:46:21.242Z,18.3
2019-01-16T04:47:11.321Z,18.3
2019-01-16T04:48:01.374Z,18.3
2019-01-16T04:48:51.491Z,18.3
2019-01-16T04:49:41.204Z,18.3
2019-01-16T04:50:31.251Z,18.3
2019-01-16T04:51:21.651Z,18.3
2019-01-16T04:52:11.368Z,18.3
2019-01-16T04:53:01.688Z,18.3
2019-01-16T04:53:51.770Z,18.3
2019-01-16T04:54:41.837Z,18.3
2019-01-16T04:55:31.864Z,18.3
2019-01-16T04:56:21.664Z,18.3
2019-01-16T04:57:11.993Z,18.3
2019-01-16T04:58:02.028Z,18.3
2019-01-16T04:58:52.143Z,18.3
2019-01-16T04:59:41.599Z,18.3
2019-01-16T05:00:32.020Z,18.3
2019-01-16T05:01:22.267Z,18.3
2019-01-16T05:02:12.355Z,18.3
2019-01-16T05:03:02.388Z,18.3
2019-01-16T05:03:52.438Z,18.3
2019-01-16T05:04:42.497Z,18.3
2019-01-16T05:05:32.262Z,18.3
2019-01-16T05:06:22.338Z,18.3
2019-01-16T05:07:12.433Z,18.3
2019-01-16T05:08:02.169Z,18.3
2019-01-16T05:08:52.759Z,18.3
2019-01-16T05:09:42.820Z,18.3
2019-01-16T05:10:32.623Z,18.3
2019-01-16T05:11:22.376Z,18.3
2019-01-16T05:12:13.000Z,18.3
2019-01-16T05:13:03.052Z,18.3
2019-01-16T05:13:53.100Z,18.3
2019-01-16T05:14:42.862Z,18.3
2019-01-16T05:15:32.942Z,18.3
2019-01-16T05:16:22.992Z,18.3
2019-01-16T05:17:13.322Z,18.3
2019-01-16T05:18:03.382Z,18.3
2019-01-16T05:18:53.212Z,18.3
2019-01-16T05:19:43.504Z,18.3
2019-01-16T05:20:33.282Z,18.3
2019-01-16T05:21:22.797Z,18.4
2019-01-16T05:22:13.099Z,18.3
2019-01-16T05:23:03.719Z,18.3
2019-01-16T05:23:53.790Z,18.3
2019-01-16T05:24:43.829Z,18.3
2019-01-16T05:25:33.599Z,18.4
2019-01-16T05:26:24.002Z,18.4
2019-01-16T05:27:14.002Z,18.4
2019-01-16T05:28:04.063Z,18.4
2019-01-16T05:28:53.844Z,18.4
2019-01-16T05:29:44.001Z,18.4
2019-01-16T05:30:34.210Z,18.4
2019-01-16T05:31:24.001Z,18.4
2019-01-16T05:32:14.339Z,18.4
2019-01-16T05:33:04.385Z,18.4
2019-01-16T05:33:54.437Z,18.4
2019-01-16T05:34:44.479Z,18.3
2019-01-16T05:35:34.559Z,18.4
2019-01-16T05:36:24.071Z,18.4
2019-01-16T05:37:14.373Z,18.4
2019-01-16T05:38:04.759Z,18.4
2019-01-16T05:38:54.787Z,18.4
2019-01-16T05:39:44.548Z,18.4
2019-01-16T05:40:34.919Z,18.4
2019-01-16T05:41:24.675Z,18.4
2019-01-16T05:42:14.997Z,18.4
2019-01-16T05:43:04.793Z,18.4
2019-01-16T05:43:55.122Z,18.4
2019-01-16T05:44:45.163Z,18.4
2019-01-16T05:45:34.940Z,18.4
2019-01-16T05:46:25.264Z,18.4
2019-01-16T05:47:15.320Z,18.4
2019-01-16T05:48:05.375Z,18.4
2019-01-16T05:48:55.138Z,18.4
2019-01-16T05:49:50.301Z,18.4
2019-01-16T05:50:35.000Z,18.4
2019-01-16T05:51:25.600Z,18.4
2019-01-16T05:52:15.645Z,18.4
2019-01-16T05:53:05.455Z,18.4
2019-01-16T05:53:55.770Z,18.4
2019-01-16T05:54:45.532Z,18.4
2019-01-16T05:55:35.350Z,18.4
2019-01-16T05:56:25.660Z,18.4
2019-01-16T05:57:15.982Z,18.4
2019-01-16T05:58:06.105Z,18.4
2019-01-16T05:58:55.824Z,18.4
2019-01-16T05:59:45.892Z,18.4
2019-01-16T06:00:36.293Z,18.4
2019-01-16T06:01:26.301Z,18.4
2019-01-16T06:02:16.334Z,18.3
2019-01-16T06:03:06.435Z,18.4
2019-01-16T06:03:56.452Z,18.4
2019-01-16T06:04:45.929Z,18.4
2019-01-16T06:06:44.287Z,18.3
2019-01-16T06:07:34.349Z,18.3
2019-01-16T06:08:24.677Z,18.3
2019-01-16T06:09:14.467Z,18.3
2019-01-16T06:10:04.829Z,18.3
2019-01-16T06:10:54.866Z,18.3
2019-01-16T06:11:44.877Z,18.3
2019-01-16T06:12:34.957Z,18.3
2019-01-16T06:13:25.050Z,18.3
2019-01-16T06:14:15.112Z,18.3
2019-01-16T06:15:05.125Z,18.3
2019-01-16T06:15:55.215Z,18.3
2019-01-16T06:16:44.937Z,18.4
2019-01-16T06:17:35.264Z,18.3
2019-01-16T06:18:25.333Z,18.3
2019-01-16T06:19:15.157Z,18.3
2019-01-16T06:20:05.460Z,18.3
2019-01-16T06:20:55.227Z,18.3
2019-01-16T06:21:45.542Z,18.3
2019-01-16T06:22:35.599Z,18.3
2019-01-16T06:23:25.748Z,18.3
2019-01-16T06:24:15.709Z,18.3
2019-01-16T06:25:05.827Z,18.4
2019-01-16T06:25:55.831Z,18.4
2019-01-16T06:26:45.609Z,18.5
2019-01-16T06:27:36.014Z,18.5
2019-01-16T06:28:26.062Z,18.6
2019-01-16T06:29:15.780Z,18.6
2019-01-16T06:30:06.119Z,18.6
2019-01-16T06:34:16.407Z,18.6
2019-01-16T06:35:06.472Z,18.6
2019-01-16T06:35:56.245Z,18.6
2019-01-16T06:36:45.845Z,18.6
2019-01-16T06:37:36.616Z,18.6
2019-01-16T06:38:26.658Z,18.6
2019-01-16T06:39:16.713Z,18.6
2019-01-16T06:40:06.504Z,18.6
2019-01-16T06:40:56.545Z,18.6
2019-01-16T06:41:46.390Z,18.6
2019-01-16T06:42:36.941Z,18.6
2019-01-16T06:43:26.715Z,18.5
2019-01-16T06:44:16.808Z,18.6
2019-01-16T06:45:06.280Z,18.6
2019-01-16T06:45:56.887Z,18.6
2019-01-16T06:46:47.212Z,18.5
2019-01-16T06:47:36.992Z,18.5
2019-01-16T06:48:26.774Z,18.5
2019-01-16T06:49:16.835Z,18.5
2019-01-16T06:50:07.438Z,18.5
2019-01-16T06:50:57.215Z,18.5
2019-01-16T06:51:47.550Z,18.5
2019-01-16T06:52:37.612Z,18.5
2019-01-16T06:53:27.405Z,18.5
2019-01-16T06:54:17.710Z,18.5
2019-01-16T06:55:07.575Z,18.5
2019-01-16T06:55:57.565Z,18.5
2019-01-16T06:56:47.880Z,18.5
2019-01-16T06:57:37.747Z,18.4
2019-01-16T06:58:27.725Z,18.4
2019-01-16T06:59:17.039Z,18.4
2019-01-16T07:00:08.114Z,18.4
2019-01-16T07:00:57.683Z,18.4
2019-01-16T07:01:47.989Z,18.4
2019-01-16T07:02:38.272Z,18.4
2019-01-16T07:03:28.073Z,18.4
2019-01-16T07:04:18.112Z,18.4
2019-01-16T07:06:44.201Z,18.4
2019-01-16T07:07:34.539Z,18.4
2019-01-16T07:08:24.119Z,18.4
2019-01-16T07:09:14.656Z,18.4
2019-01-16T07:10:04.449Z,18.4
2019-01-16T07:10:54.842Z,18.4
2019-01-16T07:11:44.601Z,18.4
2019-01-16T07:12:34.341Z,18.4
2019-01-16T07:13:24.926Z,18.4
2019-01-16T07:14:14.988Z,18.4
2019-01-16T07:15:05.028Z,18.4
2019-01-16T07:15:54.817Z,18.4
2019-01-16T07:16:44.878Z,18.4
2019-01-16T07:17:35.216Z,18.4
2019-01-16T07:18:25.264Z,18.4
2019-01-16T07:19:15.344Z,18.4
2019-01-16T07:20:12.813Z,18.4
2019-01-16T07:20:55.158Z,18.4
2019-01-16T07:21:45.485Z,18.4
2019-01-16T07:22:35.547Z,18.4
2019-01-16T07:23:25.610Z,18.4
2019-01-16T07:24:15.655Z,18.4
2019-01-16T07:25:05.711Z,18.4
2019-01-16T07:25:55.786Z,18.4
2019-01-16T07:26:45.558Z,18.4
2019-01-16T07:27:35.889Z,18.4
2019-01-16T07:28:25.940Z,18.4
2019-01-16T07:29:15.720Z,18.3
2019-01-16T07:30:06.067Z,18.4
2019-01-16T07:30:56.105Z,18.4
2019-01-16T07:31:46.213Z,18.4
2019-01-16T07:32:35.743Z,18.4
2019-01-16T07:33:26.285Z,18.3
2019-01-16T07:34:16.325Z,18.4
2019-01-16T07:35:06.380Z,18.3
2019-01-16T07:35:56.184Z,18.3
2019-01-16T07:36:45.945Z,18.3
2019-01-16T07:37:36.068Z,18.3
2019-01-16T07:38:26.609Z,18.3
2019-01-16T07:39:16.682Z,18.3
2019-01-16T07:40:06.455Z,18.3
2019-01-16T07:40:56.509Z,18.3
2019-01-16T07:41:46.574Z,18.3
2019-01-16T07:42:36.516Z,18.3
2019-01-16T07:43:26.972Z,18.3
2019-01-16T07:44:16.480Z,18.3
2019-01-16T07:45:06.794Z,18.3
2019-01-16T07:45:57.117Z,18.3
2019-01-16T07:46:48.482Z,18.3
2019-01-16T07:47:37.237Z,18.3
2019-01-16T07:48:27.480Z,18.3
2019-01-16T07:49:17.339Z,18.3
2019-01-16T07:50:07.402Z,18.3
2019-01-16T07:50:57.461Z,18.3
2019-01-16T07:51:47.547Z,18.3
2019-01-16T07:52:37.089Z,18.3
2019-01-16T07:53:27.636Z,18.3
2019-01-16T07:54:17.406Z,18.3
2019-01-16T07:55:07.741Z,18.3
2019-01-16T07:55:57.530Z,18.3
2019-01-16T07:56:47.590Z,18.3
2019-01-16T07:57:37.641Z,18.3
2019-01-16T07:58:27.984Z,18.3
2019-01-16T07:59:25.126Z,18.3
2019-01-16T08:00:08.093Z,18.3
2019-01-16T08:00:58.146Z,18.2
2019-01-16T08:01:48.191Z,18.3
2019-01-16T08:02:38.268Z,18.3
2019-01-16T08:03:28.301Z,18.3
2019-01-16T08:04:17.821Z,18.2
2019-01-16T08:05:08.415Z,18.3
2019-01-16T08:05:58.473Z,18.2
2019-01-16T08:06:48.268Z,18.2
2019-01-16T08:07:38.598Z,18.2
2019-01-16T08:08:28.363Z,18.3
2019-01-16T08:09:18.444Z,18.2
2019-01-16T08:10:08.480Z,18.2
2019-01-16T08:10:58.547Z,18.2
2019-01-16T08:11:48.325Z,18.2
2019-01-16T08:12:38.930Z,18.2
2019-01-16T08:13:29.000Z,18.2
2019-01-16T08:14:19.038Z,18.2
2019-01-16T08:15:09.092Z,18.2
2019-01-16T08:15:58.870Z,18.2
2019-01-16T08:16:48.670Z,18.2
2019-01-16T08:17:39.331Z,18.2
2019-01-16T08:18:29.327Z,18.2
2019-01-16T08:19:19.400Z,18.2
2019-01-16T08:20:09.203Z,18.2
2019-01-16T08:20:59.506Z,18.2
2019-01-16T08:21:49.552Z,18.2
2019-01-16T08:22:39.627Z,18.2
2019-01-16T08:23:29.664Z,18.1
2019-01-16T08:24:19.724Z,18.1
2019-01-16T08:25:09.829Z,18.2
2019-01-16T08:25:59.562Z,18.1
2019-01-16T08:26:49.401Z,18.1
2019-01-16T08:27:39.672Z,18.1
2019-01-16T08:28:29.749Z,18.1
2019-01-16T08:29:19.512Z,18.1
2019-01-16T08:30:09.844Z,18.1
2019-01-16T08:30:59.904Z,18.1
2019-01-16T08:31:50.239Z,18.1
2019-01-16T08:32:39.791Z,18.1
2019-01-16T08:33:29.784Z,18.1
2019-01-16T08:34:20.119Z,18.1
2019-01-16T08:35:10.459Z,18.1
2019-01-16T08:36:00.239Z,18.1
2019-01-16T08:36:50.614Z,18.1
2019-01-16T08:37:40.339Z,18.1
2019-01-16T08:38:30.488Z,18.1
2019-01-16T08:39:20.451Z,18.1
2019-01-16T08:40:10.848Z,18.1
2019-01-16T08:41:00.843Z,18.1
2019-01-16T08:41:50.643Z,18.1
2019-01-16T08:42:40.951Z,18.1
2019-01-16T08:43:31.024Z,18.1
2019-01-16T08:44:21.078Z,18.1
2019-01-16T08:45:10.875Z,18.1
2019-01-16T08:46:00.910Z,18.1
2019-01-16T08:46:51.238Z,18.1
2019-01-16T08:47:41.328Z,18.1
2019-01-16T08:48:30.814Z,18.1
2019-01-16T08:49:21.192Z,18.1
2019-01-16T08:50:11.218Z,18.1
2019-01-16T08:51:01.528Z,18.1
2019-01-16T08:51:51.356Z,18.1
2019-01-16T08:52:41.626Z,18.1
2019-01-16T08:53:31.680Z,18.1
2019-01-16T08:54:21.490Z,18.1
2019-01-16T08:55:11.817Z,17.1
2019-01-16T08:56:01.856Z,17.4
2019-01-16T08:56:51.927Z,42.7
2019-01-16T08:57:41.985Z,58.3
2019-01-16T08:58:32.047Z,60.8
2019-01-16T08:59:21.815Z,61.1
2019-01-16T09:00:12.155Z,58.4
2019-01-16T09:01:01.365Z,55.3
2019-01-16T09:01:52.264Z,53.8
2019-01-16T09:02:42.324Z,52.7
2019-01-16T09:03:32.374Z,51.8
2019-01-16T09:04:22.425Z,50.9
2019-01-16T09:05:11.952Z,50.1
2019-01-16T09:06:01.772Z,49.3
2019-01-16T09:06:52.660Z,48.6
2019-01-16T09:07:42.647Z,47.8
2019-01-16T09:08:32.427Z,47.1
2019-01-16T09:09:22.500Z,46.4
2019-01-16T09:10:12.334Z,45.7
2019-01-16T09:11:02.884Z,45.1
2019-01-16T09:11:52.672Z,44.4
2019-01-16T09:12:41.957Z,43.8
2019-01-16T09:13:33.046Z,43.2
2019-01-16T09:14:22.881Z,42.6
2019-01-16T09:15:13.164Z,42.1
2019-01-16T09:16:02.671Z,41.5
2019-01-16T09:16:53.041Z,41
2019-01-16T09:17:44.855Z,40.4
2019-01-16T09:18:33.143Z,39.9
2019-01-16T09:19:23.498Z,39.4
2019-01-16T09:20:13.504Z,39
2019-01-16T09:21:03.560Z,38.6
2019-01-16T09:21:53.601Z,38.1
2019-01-16T09:22:45.506Z,37.7
2019-01-16T09:23:33.721Z,37.3
2019-01-16T09:24:23.223Z,36.9
2019-01-16T09:25:13.838Z,36.5
2019-01-16T09:26:03.888Z,36.1
2019-01-16T09:26:53.656Z,35.8
2019-01-16T09:27:43.712Z,35.4
2019-01-16T09:28:34.048Z,35
2019-01-16T09:29:24.115Z,34.7
2019-01-16T09:30:14.168Z,34.3
2019-01-16T09:31:03.946Z,34.1
2019-01-16T09:31:54.278Z,33.8
2019-01-16T09:32:44.086Z,33.4
2019-01-16T09:33:33.893Z,33.1
2019-01-16T09:34:24.493Z,32.8
2019-01-16T09:35:14.021Z,32.6
2019-01-16T09:36:04.570Z,32.3
2019-01-16T09:36:54.692Z,32
2019-01-16T09:37:44.687Z,31.8
2019-01-16T09:38:34.730Z,31.5
2019-01-16T09:39:24.512Z,31.3
2019-01-16T09:40:14.842Z,31
2019-01-16T09:41:04.145Z,30.8
2019-01-16T09:41:54.950Z,30.6
2019-01-16T09:42:44.815Z,30.3
2019-01-16T09:43:35.087Z,30.1
2019-01-16T09:44:24.632Z,29.9
2019-01-16T09:45:15.187Z,29.7
2019-01-16T09:46:04.959Z,29.5
2019-01-16T09:46:55.290Z,29.3
2019-01-16T09:47:45.387Z,29.1
2019-01-16T09:48:34.854Z,28.9
2019-01-16T09:49:24.911Z,28.8
2019-01-16T09:50:15.234Z,28.5
2019-01-16T09:51:05.585Z,28.4
2019-01-16T09:51:55.711Z,28.2
2019-01-16T09:52:45.422Z,28
2019-01-16T09:53:35.754Z,27.9
2019-01-16T09:54:25.799Z,27.7
2019-01-16T09:55:15.861Z,33.1
2019-01-16T09:56:05.933Z,41.3
2019-01-16T09:56:55.694Z,59.8
2019-01-16T09:57:46.084Z,65
2019-01-16T09:58:35.809Z,63.6
2019-01-16T09:59:25.869Z,62.4
2019-01-16T10:00:15.704Z,60.7
2019-01-16T10:01:05.963Z,58.6
2019-01-16T10:01:55.756Z,57.3
2019-01-16T10:02:46.372Z,56.1
2019-01-16T10:03:36.158Z,55.1
2019-01-16T10:04:26.266Z,54.1
2019-01-16T10:05:16.530Z,53.3
2019-01-16T10:07:43.775Z,51
2019-01-16T10:08:33.866Z,50
2019-01-16T10:09:24.145Z,49.3
2019-01-16T10:10:14.208Z,48.6
2019-01-16T10:11:04.545Z,47.8
2019-01-16T10:11:54.591Z,47.2
2019-01-16T10:12:44.373Z,46.4
2019-01-16T10:13:34.428Z,45.8
2019-01-16T10:14:24.833Z,45.2
2019-01-16T10:15:14.605Z,44.6
2019-01-16T10:16:04.875Z,44.1
2019-01-16T10:16:54.934Z,43.4
2019-01-16T10:17:44.722Z,42.9
2019-01-16T10:18:34.487Z,42.4
2019-01-16T10:19:24.815Z,41.9
2019-01-16T10:20:14.888Z,41.4
2019-01-16T10:21:05.213Z,40.9
2019-01-16T10:21:54.717Z,40.4
2019-01-16T10:22:45.045Z,39.9
2019-01-16T10:23:35.099Z,39.5
2019-01-16T10:24:25.176Z,39.1
2019-01-16T10:25:15.504Z,38.6
2019-01-16T10:26:05.559Z,38.2
2019-01-16T10:26:55.609Z,37.8
2019-01-16T10:27:44.899Z,37.4
2019-01-16T10:28:35.440Z,37.1
2019-01-16T10:29:25.772Z,36.7
2019-01-16T10:30:15.006Z,36.3
2019-01-16T10:31:05.604Z,36
2019-01-16T10:31:55.481Z,35.6
2019-01-16T10:32:45.726Z,35.3
2019-01-16T10:33:35.786Z,35
2019-01-16T10:34:25.846Z,34.7
2019-01-16T10:35:16.170Z,34.4
2019-01-16T10:36:05.466Z,34.1
2019-01-16T10:36:56.290Z,33.8
2019-01-16T10:37:46.074Z,33.5
2019-01-16T10:38:35.841Z,33.3
2019-01-16T10:39:26.194Z,33
2019-01-16T10:40:16.571Z,32.7
2019-01-16T10:41:06.573Z,32.4
2019-01-16T10:41:56.338Z,32.2
2019-01-16T10:42:46.403Z,31.9
2019-01-16T10:43:36.511Z,31.8
2019-01-16T10:44:26.563Z,31.5
2019-01-16T10:45:16.596Z,31.3
2019-01-16T10:46:06.930Z,31.1
2019-01-16T10:46:56.688Z,30.9
2019-01-16T10:47:47.049Z,30.6
2019-01-16T10:48:36.258Z,30.4
2019-01-16T10:49:27.136Z,30.2
2019-01-16T10:50:16.370Z,30.1
2019-01-16T10:51:06.968Z,29.8
2019-01-16T10:51:57.358Z,29.6
2019-01-16T10:52:47.088Z,29.4
2019-01-16T10:53:37.152Z,29.3
2019-01-16T10:54:27.274Z,29.1
2019-01-16T10:55:17.267Z,28.9
2019-01-16T10:56:07.305Z,28.8
2019-01-16T10:56:57.690Z,28.6
2019-01-16T10:57:47.422Z,28.4
2019-01-16T10:58:37.485Z,28.3
2019-01-16T10:59:27.267Z,28.1
2019-01-16T11:00:17.869Z,28
2019-01-16T11:01:57.982Z,27.7
2019-01-16T11:02:47.759Z,27.5
2019-01-16T11:03:37.812Z,27.4
2019-01-16T11:04:27.323Z,27.3
2019-01-16T11:05:17.662Z,27.1
2019-01-16T11:06:07.707Z,26.9
2019-01-16T11:06:58.043Z,26.9
2019-01-16T11:07:48.379Z,26.7
2019-01-16T11:08:38.447Z,26.6
2019-01-16T11:09:28.237Z,26.5
2019-01-16T11:10:18.281Z,26.4
2019-01-16T11:11:17.470Z,26.3
2019-01-16T11:11:58.101Z,26.1
2019-01-16T11:12:48.711Z,26.1
2019-01-16T11:13:38.667Z,25.9
2019-01-16T11:14:28.561Z,25.8
2019-01-16T11:15:18.619Z,25.7
2019-01-16T11:16:08.947Z,25.6
2019-01-16T11:16:59.951Z,25.5
2019-01-16T11:17:48.776Z,25.4
2019-01-16T11:18:39.111Z,25.3